createdAt,value
2023-12-17T00:00:54.429Z,102614.06
2023-12-17T00:03:56.988Z,102609.78
2023-12-17T00:07:00.102Z,102612.41
2023-12-17T00:10:03.010Z,102610.09
2023-12-17T00:13:05.832Z,102605.63
2023-12-17T00:16:08.756Z,102607.16
2023-12-17T00:19:11.265Z,102604.97
2023-12-17T00:22:13.780Z,102597.44
2023-12-17T00:25:16.193Z,102604.78
2023-12-17T00:28:18.754Z,102604.16
2023-12-17T00:31:21.216Z,102604.44
2023-12-17T00:34:23.746Z,102608.66
2023-12-17T00:37:26.248Z,102599.16
2023-12-17T00:40:28.687Z,102596.50
2023-12-17T00:43:31.216Z,102600.44
2023-12-17T00:46:33.593Z,102587.16
2023-12-17T00:49:36.082Z,102584.88
2023-12-17T00:52:38.592Z,102587.00
2023-12-17T00:55:40.985Z,102595.63
2023-12-17T00:58:43.368Z,102602.03
2023-12-17T01:01:45.781Z,102604.75
2023-12-17T01:04:48.234Z,102605.41
2023-12-17T01:07:51.462Z,102606.41
2023-12-17T01:10:53.867Z,102604.22
2023-12-17T01:13:56.358Z,102608.66
2023-12-17T01:16:59.276Z,102602.38
2023-12-17T01:20:01.869Z,102588.72
2023-12-17T01:23:04.445Z,102586.69
2023-12-17T01:26:07.004Z,102570.34
2023-12-17T01:29:09.382Z,102563.22
2023-12-17T01:32:11.776Z,102570.53
2023-12-17T01:35:14.228Z,102581.00
2023-12-17T01:38:16.640Z,102578.22
2023-12-17T01:41:19.079Z,102577.09
2023-12-17T01:44:21.584Z,102588.09
2023-12-17T01:47:24.580Z,102578.31
2023-12-17T01:50:28.105Z,102553.44
2023-12-17T01:53:30.916Z,102540.38
2023-12-17T01:56:33.630Z,102531.25
2023-12-17T01:59:37.155Z,102543.53
2023-12-17T02:02:40.557Z,102542.22
2023-12-17T02:05:46.327Z,102548.00
2023-12-17T02:08:49.025Z,102549.88
2023-12-17T02:11:51.473Z,102544.34
2023-12-17T02:14:55.101Z,102550.41
2023-12-17T02:17:57.978Z,102549.03
2023-12-17T02:21:01.805Z,102566.91
2023-12-17T02:24:06.543Z,102574.94
2023-12-17T02:27:11.139Z,102568.19
2023-12-17T02:30:13.882Z,102562.19
2023-12-17T02:33:16.564Z,102570.25
2023-12-17T02:36:19.048Z,102570.31
2023-12-17T02:39:21.666Z,102557.16
2023-12-17T02:42:24.166Z,102552.28
2023-12-17T02:45:26.719Z,102542.47
2023-12-17T02:48:29.428Z,102547.88
2023-12-17T02:51:32.747Z,102546.81
2023-12-17T02:54:35.258Z,102531.16
2023-12-17T02:57:38.226Z,102532.72
2023-12-17T03:00:40.781Z,102516.06
2023-12-17T03:03:43.248Z,102504.22
2023-12-17T03:06:45.975Z,102518.13
2023-12-17T03:09:49.321Z,102527.69
2023-12-17T03:12:51.852Z,102525.88
2023-12-17T03:15:54.257Z,102541.72
2023-12-17T03:18:57.345Z,102537.75
2023-12-17T03:21:59.825Z,102547.97
2023-12-17T03:25:02.590Z,102541.34
2023-12-17T03:28:05.131Z,102539.16
2023-12-17T03:31:07.654Z,102541.88
2023-12-17T03:34:10.230Z,102545.00
2023-12-17T03:37:12.758Z,102546.84
2023-12-17T03:40:15.536Z,102542.91
2023-12-17T03:43:17.961Z,102532.25
2023-12-17T03:46:21.436Z,102532.72
2023-12-17T03:49:23.995Z,102525.22
2023-12-17T03:52:26.558Z,102521.16
2023-12-17T03:55:28.953Z,102516.66
2023-12-17T03:58:32.138Z,102512.94
2023-12-17T04:01:34.508Z,102531.44
2023-12-17T04:04:37.095Z,102527.69
2023-12-17T04:07:39.817Z,102536.22
2023-12-17T04:10:42.437Z,102528.06
2023-12-17T04:13:44.858Z,102521.81
2023-12-17T04:16:47.301Z,102514.75
2023-12-17T04:19:49.740Z,102521.91
2023-12-17T04:22:52.128Z,102521.53
2023-12-17T04:25:54.605Z,102522.63
2023-12-17T04:28:57.041Z,102521.25
2023-12-17T04:31:59.478Z,102519.16
2023-12-17T04:35:01.900Z,102529.59
2023-12-17T04:38:04.378Z,102534.06
2023-12-17T04:41:06.985Z,102551.31
2023-12-17T04:44:09.506Z,102552.97
2023-12-17T04:47:12.221Z,102525.00
2023-12-17T04:50:14.670Z,102546.13
2023-12-17T04:53:17.092Z,102546.97
2023-12-17T04:56:22.145Z,102563.03
2023-12-17T04:59:25.382Z,102557.25
2023-12-17T05:02:28.062Z,102542.78
2023-12-17T05:05:30.533Z,102536.16
2023-12-17T05:08:33.000Z,102543.50
2023-12-17T05:11:35.717Z,102535.34
2023-12-17T05:14:38.155Z,102543.31
2023-12-17T05:17:40.997Z,102543.59
2023-12-17T05:20:45.969Z,102545.72
2023-12-17T05:23:48.520Z,102543.28
2023-12-17T05:26:51.026Z,102546.50
2023-12-17T05:29:53.483Z,102535.66
2023-12-17T05:32:55.947Z,102523.56
2023-12-17T05:35:58.443Z,102516.94
2023-12-17T05:39:00.888Z,102506.50
2023-12-17T05:42:03.492Z,102506.13
2023-12-17T05:45:06.616Z,102514.63
2023-12-17T05:48:10.297Z,102516.63
2023-12-17T05:51:12.795Z,102515.81
2023-12-17T05:54:15.283Z,102523.25
2023-12-17T05:57:17.927Z,102522.91
2023-12-17T06:00:20.649Z,102529.03
2023-12-17T06:03:23.226Z,102538.69
2023-12-17T06:06:27.317Z,102537.16
2023-12-17T06:09:30.801Z,102540.84
2023-12-17T06:12:33.401Z,102547.38
2023-12-17T06:15:35.908Z,102547.84
2023-12-17T06:18:39.969Z,102554.91
2023-12-17T06:21:42.585Z,102538.22
2023-12-17T06:24:45.043Z,102528.50
2023-12-17T06:27:47.475Z,102524.25
2023-12-17T06:30:50.098Z,102509.31
2023-12-17T06:33:56.070Z,102500.09
2023-12-17T06:36:59.152Z,102513.16
2023-12-17T06:40:01.547Z,102519.63
2023-12-17T06:43:03.946Z,102527.81
2023-12-17T06:46:08.211Z,102548.28
2023-12-17T06:49:11.578Z,102545.13
2023-12-17T06:52:14.201Z,102566.63
2023-12-17T06:55:16.722Z,102569.59
2023-12-17T06:58:19.272Z,102550.78
2023-12-17T07:01:21.702Z,102560.22
2023-12-17T07:04:24.270Z,102556.66
2023-12-17T07:07:26.725Z,102552.38
2023-12-17T07:10:29.143Z,102552.75
2023-12-17T07:13:31.601Z,102567.09
2023-12-17T07:16:33.982Z,102565.59
2023-12-17T07:19:37.004Z,102562.19
2023-12-17T07:22:39.979Z,102563.28
2023-12-17T07:25:42.379Z,102567.53
2023-12-17T07:28:44.774Z,102564.78
2023-12-17T07:31:47.157Z,102576.13
2023-12-17T07:34:49.525Z,102577.34
2023-12-17T07:37:51.952Z,102586.34
2023-12-17T07:40:55.197Z,102592.06
2023-12-17T07:43:57.854Z,102597.28
2023-12-17T07:47:00.242Z,102605.47
2023-12-17T07:50:02.797Z,102618.84
2023-12-17T07:53:05.499Z,102622.03
2023-12-17T07:56:10.914Z,102609.91
2023-12-17T07:59:14.493Z,102609.81
2023-12-17T08:02:17.017Z,102604.44
2023-12-17T08:05:19.943Z,102586.41
2023-12-17T08:08:22.381Z,102580.31
2023-12-17T08:11:24.836Z,102590.41
2023-12-17T08:14:27.387Z,102594.59
2023-12-17T08:17:29.904Z,102589.91
2023-12-17T08:20:33.523Z,102593.25
2023-12-17T08:23:37.543Z,102593.41
2023-12-17T08:26:41.789Z,102601.81
2023-12-17T08:29:49.072Z,102593.56
2023-12-17T08:32:52.651Z,102596.69
2023-12-17T08:35:55.295Z,102596.72
2023-12-17T08:38:57.826Z,102612.53
2023-12-17T08:42:00.379Z,102607.22
2023-12-17T08:45:02.928Z,102609.88
2023-12-17T08:48:06.541Z,102609.28
2023-12-17T08:51:09.214Z,102611.97
2023-12-17T08:54:11.978Z,102610.97
2023-12-17T08:57:14.447Z,102608.91
2023-12-17T09:00:20.197Z,102608.34
2023-12-17T09:03:22.800Z,102603.81
2023-12-17T09:06:25.301Z,102591.66
2023-12-17T09:09:27.810Z,102600.31
2023-12-17T09:12:30.461Z,102597.03
2023-12-17T09:15:33.012Z,102595.38
2023-12-17T09:18:35.583Z,102598.06
2023-12-17T09:21:38.052Z,102609.38
2023-12-17T09:24:41.513Z,102611.44
2023-12-17T09:27:44.083Z,102606.69
2023-12-17T09:30:46.594Z,102603.41
2023-12-17T09:33:49.075Z,102593.31
2023-12-17T09:36:51.568Z,102598.66
2023-12-17T09:39:54.453Z,102595.41
2023-12-17T09:42:57.251Z,102590.88
2023-12-17T09:45:59.932Z,102573.56
2023-12-17T09:49:03.321Z,102574.59
2023-12-17T09:52:13.832Z,102578.69
2023-12-17T09:55:16.398Z,102583.00
2023-12-17T09:58:20.778Z,102577.25
2023-12-17T10:01:23.869Z,102572.97
2023-12-17T10:04:27.302Z,102577.88
2023-12-17T10:07:31.272Z,102578.50
2023-12-17T10:10:33.844Z,102578.22
2023-12-17T10:13:36.382Z,102570.44
2023-12-17T10:16:38.797Z,102573.09
2023-12-17T10:19:42.007Z,102559.91
2023-12-17T10:22:59.320Z,102562.78
2023-12-17T10:26:02.372Z,102557.53
2023-12-17T10:29:04.941Z,102563.97
2023-12-17T10:32:09.836Z,102575.09
2023-12-17T10:35:13.165Z,102573.31
2023-12-17T10:38:16.022Z,102580.72
2023-12-17T10:41:20.782Z,102570.66
2023-12-17T10:44:23.575Z,102571.88
2023-12-17T10:47:26.977Z,102578.59
2023-12-17T10:50:29.946Z,102573.91
2023-12-17T10:53:32.427Z,102571.66
2023-12-17T10:57:01.862Z,102566.63
2023-12-17T11:00:06.259Z,102581.84
2023-12-17T11:03:10.844Z,102574.91
2023-12-17T11:06:13.643Z,102580.66
2023-12-17T11:09:19.545Z,102556.19
2023-12-17T11:12:22.076Z,102570.88
2023-12-17T11:15:24.923Z,102568.19
2023-12-17T11:19:05.909Z,102551.97
2023-12-17T11:22:08.955Z,102568.00
2023-12-17T11:25:12.693Z,102564.50
2023-12-17T11:28:26.355Z,102562.84
2023-12-17T11:31:28.934Z,102575.22
2023-12-17T11:34:32.589Z,102568.84
2023-12-17T11:37:35.831Z,102562.03
2023-12-17T11:40:39.053Z,102555.69
2023-12-17T11:43:41.450Z,102548.50
2023-12-17T11:46:47.952Z,102538.59
2023-12-17T11:49:50.841Z,102537.78
2023-12-17T11:53:02.490Z,102559.59
2023-12-17T11:56:06.790Z,102558.34
2023-12-17T11:59:09.594Z,102553.81
2023-12-17T12:02:16.518Z,102560.59
2023-12-17T12:05:19.578Z,102550.50
2023-12-17T12:08:22.613Z,102544.38
2023-12-17T12:11:32.759Z,102561.84
2023-12-17T12:14:35.223Z,102558.97
2023-12-17T12:17:42.616Z,102552.38
2023-12-17T12:20:45.556Z,102553.63
2023-12-17T12:23:53.591Z,102547.25
2023-12-17T12:26:56.331Z,102545.19
2023-12-17T12:29:58.962Z,102536.34
2023-12-17T12:33:12.007Z,102525.47
2023-12-17T12:36:15.098Z,102533.06
2023-12-17T12:39:20.682Z,102519.06
2023-12-17T12:42:23.612Z,102528.94
2023-12-17T12:45:26.042Z,102532.47
2023-12-17T12:48:29.096Z,102536.78
2023-12-17T12:51:32.864Z,102519.91
2023-12-17T12:54:36.505Z,102528.53
2023-12-17T12:57:39.210Z,102518.25
2023-12-17T13:00:49.019Z,102519.47
2023-12-17T13:03:51.727Z,102528.72
2023-12-17T13:06:54.218Z,102529.56
2023-12-17T13:10:01.406Z,102537.59
2023-12-17T13:13:10.749Z,102528.75
2023-12-17T13:16:13.209Z,102536.97
2023-12-17T13:19:16.281Z,102532.84
2023-12-17T13:22:19.272Z,102546.84
2023-12-17T13:25:21.809Z,102535.31
2023-12-17T13:28:26.646Z,102529.97
2023-12-17T13:31:29.094Z,102534.09
2023-12-17T13:34:31.488Z,102533.66
2023-12-17T13:37:33.899Z,102533.84
2023-12-17T13:40:36.400Z,102526.28
2023-12-17T13:43:39.714Z,102533.47
2023-12-17T13:46:42.224Z,102547.66
2023-12-17T13:49:45.342Z,102540.47
2023-12-17T13:52:47.977Z,102535.72
2023-12-17T13:55:50.662Z,102531.41
2023-12-17T13:58:53.143Z,102541.69
2023-12-17T14:01:55.643Z,102536.53
2023-12-17T14:04:58.096Z,102543.34
2023-12-17T14:08:00.762Z,102518.84
2023-12-17T14:11:03.334Z,102523.00
2023-12-17T14:14:07.373Z,102529.38
2023-12-17T14:17:09.939Z,102544.78
2023-12-17T14:20:17.053Z,102541.50
2023-12-17T14:23:23.149Z,102542.09
2023-12-17T14:26:25.660Z,102538.56
2023-12-17T14:29:28.038Z,102539.84
2023-12-17T14:32:30.519Z,102539.03
2023-12-17T14:35:33.051Z,102537.19
2023-12-17T14:38:37.034Z,102526.69
2023-12-17T14:41:40.034Z,102536.53
2023-12-17T14:44:42.491Z,102538.63
2023-12-17T14:47:45.521Z,102533.03
2023-12-17T14:50:48.515Z,102527.50
2023-12-17T14:53:55.976Z,102519.09
2023-12-17T14:57:01.551Z,102507.56
2023-12-17T15:00:05.430Z,102513.31
2023-12-17T15:03:10.525Z,102518.88
2023-12-17T15:06:13.195Z,102524.44
2023-12-17T15:09:24.254Z,102529.78
2023-12-17T15:12:27.040Z,102536.34
2023-12-17T15:15:29.653Z,102528.31
2023-12-17T15:18:32.202Z,102540.66
2023-12-17T15:21:34.707Z,102552.19
2023-12-17T15:24:37.260Z,102543.16
2023-12-17T15:27:39.792Z,102536.56
2023-12-17T15:30:42.429Z,102540.66
2023-12-17T15:33:45.142Z,102522.78
2023-12-17T15:36:47.705Z,102535.31
2023-12-17T15:39:50.149Z,102541.31
2023-12-17T15:42:52.728Z,102545.00
2023-12-17T15:45:55.156Z,102536.13
2023-12-17T15:48:58.041Z,102550.75
2023-12-17T15:52:00.560Z,102549.09
2023-12-17T15:55:03.097Z,102545.59
2023-12-17T15:58:05.552Z,102542.94
2023-12-17T16:01:08.072Z,102543.34
2023-12-17T16:04:10.785Z,102537.38
2023-12-17T16:07:13.796Z,102540.47
2023-12-17T16:10:16.307Z,102539.84
2023-12-17T16:13:18.792Z,102543.97
2023-12-17T16:16:23.085Z,102546.63
2023-12-17T16:19:25.600Z,102542.09
2023-12-17T16:22:29.884Z,102533.25
2023-12-17T16:25:32.349Z,102540.88
2023-12-17T16:28:34.767Z,102541.88
2023-12-17T16:31:37.599Z,102550.75
2023-12-17T16:34:40.184Z,102535.53
2023-12-17T16:37:43.428Z,102528.09
2023-12-17T16:40:46.389Z,102537.38
2023-12-17T16:43:50.363Z,102537.16
2023-12-17T16:46:53.276Z,102536.53
2023-12-17T16:49:56.962Z,102522.78
2023-12-17T16:52:59.413Z,102528.72
2023-12-17T16:56:06.335Z,102522.16
2023-12-17T16:59:08.864Z,102534.69
2023-12-17T17:02:11.661Z,102542.50
2023-12-17T17:05:14.455Z,102541.91
2023-12-17T17:08:16.967Z,102544.34
2023-12-17T17:11:19.404Z,102526.44
2023-12-17T17:14:21.852Z,102524.00
2023-12-17T17:17:24.509Z,102526.66
2023-12-17T17:20:27.043Z,102531.19
2023-12-17T17:23:29.507Z,102526.66
2023-12-17T17:26:33.127Z,102537.75
2023-12-17T17:29:36.414Z,102549.50
2023-12-17T17:32:39.211Z,102558.75
2023-12-17T17:35:41.834Z,102545.59
2023-12-17T17:38:44.414Z,102543.75
2023-12-17T17:41:49.713Z,102530.16
2023-12-17T17:44:52.200Z,102522.97
2023-12-17T17:47:54.665Z,102510.19
2023-12-17T17:51:02.857Z,102516.59
2023-12-17T17:54:05.497Z,102506.50
2023-12-17T17:57:08.506Z,102525.84
2023-12-17T18:00:11.662Z,102525.03
2023-12-17T18:03:14.343Z,102526.88
2023-12-17T18:06:17.134Z,102512.88
2023-12-17T18:09:20.714Z,102516.59
2023-12-17T18:12:23.234Z,102510.63
2023-12-17T18:15:27.696Z,102514.75
2023-12-17T18:18:30.692Z,102509.00
2023-12-17T18:21:39.127Z,102493.56
2023-12-17T18:24:41.800Z,102506.94
2023-12-17T18:27:44.760Z,102509.81
2023-12-17T18:30:49.087Z,102510.63
2023-12-17T18:33:51.900Z,102503.25
2023-12-17T18:36:55.245Z,102504.03
2023-12-17T18:39:58.576Z,102528.09
2023-12-17T18:43:01.185Z,102518.25
2023-12-17T18:46:03.925Z,102505.25
2023-12-17T18:49:07.179Z,102488.41
2023-12-17T18:52:09.804Z,102495.38
2023-12-17T18:55:12.318Z,102506.72
2023-12-17T18:58:15.048Z,102494.78
2023-12-17T19:01:17.738Z,102493.97
2023-12-17T19:04:22.251Z,102490.47
2023-12-17T19:07:25.053Z,102487.59
2023-12-17T19:10:27.581Z,102481.22
2023-12-17T19:13:32.433Z,102474.44
2023-12-17T19:16:36.637Z,102497.28
2023-12-17T19:19:39.750Z,102489.81
2023-12-17T19:22:42.908Z,102498.06
2023-12-17T19:25:46.009Z,102486.34
2023-12-17T19:28:48.718Z,102482.25
2023-12-17T19:31:51.297Z,102489.03
2023-12-17T19:34:54.062Z,102497.25
2023-12-17T19:37:57.407Z,102483.28
2023-12-17T19:40:59.817Z,102486.16
2023-12-17T19:44:02.387Z,102500.31
2023-12-17T19:47:07.679Z,102489.63
2023-12-17T19:50:10.351Z,102507.31
2023-12-17T19:53:14.594Z,102507.50
2023-12-17T19:56:17.877Z,102486.09
2023-12-17T19:59:20.512Z,102494.16
2023-12-17T20:02:22.988Z,102487.34
2023-12-17T20:05:25.695Z,102473.97
2023-12-17T20:08:31.647Z,102457.09
2023-12-17T20:11:34.740Z,102461.25
2023-12-17T20:14:37.229Z,102464.97
2023-12-17T20:17:41.086Z,102465.78
2023-12-17T20:20:44.729Z,102461.44
2023-12-17T20:23:48.385Z,102456.06
2023-12-17T20:26:50.855Z,102450.75
2023-12-17T20:29:54.998Z,102454.25
2023-12-17T20:32:57.573Z,102452.38
2023-12-17T20:36:00.078Z,102450.16
2023-12-17T20:39:02.628Z,102447.22
2023-12-17T20:42:07.995Z,102438.22
2023-12-17T20:45:11.390Z,102448.06
2023-12-17T20:48:17.310Z,102449.50
2023-12-17T20:51:19.876Z,102439.81
2023-12-17T20:54:22.369Z,102467.00
2023-12-17T20:57:27.054Z,102438.81
2023-12-17T21:00:30.593Z,102431.84
2023-12-17T21:03:33.113Z,102419.28
2023-12-17T21:06:35.653Z,102433.06
2023-12-17T21:09:38.187Z,102449.13
2023-12-17T21:12:42.155Z,102458.41
2023-12-17T21:15:44.833Z,102455.50
2023-12-17T21:18:48.442Z,102443.16
2023-12-17T21:21:52.378Z,102441.34
2023-12-17T21:24:55.369Z,102444.41
2023-12-17T21:27:58.007Z,102447.69
2023-12-17T21:31:00.585Z,102432.69
2023-12-17T21:34:03.198Z,102431.84
2023-12-17T21:37:05.781Z,102436.97
2023-12-17T21:40:08.779Z,102439.78
2023-12-17T21:43:11.157Z,102442.25
2023-12-17T21:46:14.774Z,102447.41
2023-12-17T21:49:17.990Z,102445.53
2023-12-17T21:52:29.723Z,102457.88
2023-12-17T21:55:35.552Z,102451.16
2023-12-17T21:58:38.073Z,102453.16
2023-12-17T22:01:40.726Z,102442.47
2023-12-17T22:04:43.387Z,102430.78
2023-12-17T22:07:46.303Z,102420.03
2023-12-17T22:10:48.835Z,102420.34
2023-12-17T22:13:51.258Z,102414.56
2023-12-17T22:16:54.005Z,102425.66
2023-12-17T22:19:56.466Z,102428.66
2023-12-17T22:23:03.354Z,102414.66
2023-12-17T22:26:05.811Z,102415.50
2023-12-17T22:29:08.198Z,102424.75
2023-12-17T22:32:10.689Z,102429.31
2023-12-17T22:35:13.163Z,102423.78
2023-12-17T22:38:15.570Z,102428.75
2023-12-17T22:41:18.008Z,102412.31
2023-12-17T22:44:21.092Z,102402.59
2023-12-17T22:47:29.736Z,102393.31
2023-12-17T22:50:32.712Z,102397.63
2023-12-17T22:53:35.097Z,102398.63
2023-12-17T22:56:37.954Z,102396.63
2023-12-17T22:59:40.423Z,102393.75
2023-12-17T23:02:42.813Z,102375.56
2023-12-17T23:05:45.221Z,102370.28
2023-12-17T23:08:47.919Z,102393.75
2023-12-17T23:11:50.326Z,102403.81
2023-12-17T23:14:53.004Z,102406.09
2023-12-17T23:17:55.433Z,102410.00
2023-12-17T23:20:58.341Z,102413.03
2023-12-17T23:24:01.406Z,102423.31
2023-12-17T23:27:04.299Z,102418.44
2023-12-17T23:30:07.764Z,102410.34
2023-12-17T23:33:10.398Z,102406.84
2023-12-17T23:36:13.037Z,102388.41
2023-12-17T23:39:15.469Z,102394.19
2023-12-17T23:42:17.931Z,102405.66
2023-12-17T23:45:20.439Z,102390.25
2023-12-17T23:48:22.992Z,102383.66
2023-12-17T23:51:25.481Z,102374.75
2023-12-17T23:54:27.942Z,102388.69
2023-12-17T23:57:30.671Z,102376.53
